Terminal Aerodrome Forecast
Issued by NWS

Home | Current Version | Previous Version | Text Only | Print | Product List | Glossary On
Versions: 1 2 3 4 5 6 7 8 9 10 11 12 13 14 15 16
936
FTUS44 KCRP 221120
TAFLRD
TAF
KLRD 221120Z 2212/2312 07005KT P6SM BKN009
     FM221500 14013KT P6SM VCSH SCT022
     FM222200 13015KT P6SM SCT035
     FM230600 12008KT P6SM BKN015=

USA.gov is the U.S. government's official web portal to all federal, state and local government web resources and services.